createdAt,value
2023-04-07T00:01:06.983Z,11.20
2023-04-07T00:03:08.769Z,11.03
2023-04-07T00:05:10.563Z,11.70
2023-04-07T00:07:12.747Z,11.60
2023-04-07T00:09:14.455Z,11.30
2023-04-07T00:11:16.106Z,11.30
2023-04-07T00:13:17.876Z,11.80
2023-04-07T00:15:22.714Z,12.57
2023-04-07T00:17:24.558Z,11.20
2023-04-07T00:19:27.274Z,10.20
2023-04-07T00:21:31.415Z,11.47
2023-04-07T00:23:33.248Z,11.10
2023-04-07T00:25:35.032Z,10.03
2023-04-07T00:27:37.260Z,10.33
2023-04-07T00:29:38.940Z,11.03
2023-04-07T00:31:43.200Z,11.13
2023-04-07T00:33:45.460Z,10.73
2023-04-07T00:35:51.640Z,10.83
2023-04-07T00:37:53.399Z,9.97
2023-04-07T00:39:56.194Z,10.60
2023-04-07T00:41:57.904Z,10.57
2023-04-07T00:44:02.065Z,10.37
2023-04-07T00:46:03.853Z,10.00
2023-04-07T00:48:06.000Z,11.10
2023-04-07T00:50:08.558Z,11.50
2023-04-07T00:52:16.658Z,10.53
2023-04-07T00:54:19.095Z,11.53
2023-04-07T00:56:21.038Z,10.63
2023-04-07T00:58:22.914Z,10.97
2023-04-07T01:00:24.998Z,11.50
2023-04-07T01:02:36.354Z,11.50
2023-04-07T01:04:41.335Z,11.50
2023-04-07T01:06:48.202Z,10.93
2023-04-07T01:08:50.904Z,10.80
2023-04-07T01:11:27.014Z,10.97
2023-04-07T01:13:46.502Z,10.53
2023-04-07T01:16:00.964Z,11.23
2023-04-07T01:18:17.601Z,10.77
2023-04-07T01:20:23.984Z,11.23
2023-04-07T01:22:45.769Z,12.40
2023-04-07T01:25:08.465Z,11.40
2023-04-07T01:27:31.967Z,10.60
2023-04-07T01:29:39.857Z,10.77
2023-04-07T01:31:42.674Z,10.77
2023-04-07T01:33:46.187Z,12.27
2023-04-07T01:35:49.852Z,11.27
2023-04-07T01:37:53.222Z,11.10
2023-04-07T01:39:55.249Z,11.40
2023-04-07T01:41:57.994Z,11.70
2023-04-07T01:44:02.190Z,11.30
2023-04-07T01:46:05.160Z,11.07
2023-04-07T01:48:10.434Z,11.43
2023-04-07T01:50:13.415Z,10.70
2023-04-07T01:52:18.561Z,11.10
2023-04-07T01:54:21.311Z,11.83
2023-04-07T01:56:23.111Z,11.57
2023-04-07T01:58:29.520Z,11.47
2023-04-07T02:00:34.390Z,13.00
2023-04-07T02:02:43.124Z,12.00
2023-04-07T02:04:58.442Z,12.13
2023-04-07T02:07:06.301Z,11.50
2023-04-07T02:09:16.774Z,12.30
2023-04-07T02:11:22.076Z,11.40
2023-04-07T02:13:28.820Z,12.23
2023-04-07T02:15:36.416Z,11.47
2023-04-07T02:17:41.387Z,12.37
2023-04-07T02:19:46.829Z,11.90
2023-04-07T02:21:50.015Z,12.40
2023-04-07T02:23:51.795Z,13.00
2023-04-07T02:26:00.571Z,12.20
2023-04-07T02:28:02.338Z,12.50
2023-04-07T02:30:04.248Z,11.90
2023-04-07T02:32:06.952Z,11.87
2023-04-07T02:34:11.052Z,12.50
2023-04-07T02:36:15.830Z,11.63
2023-04-07T02:38:17.494Z,12.70
2023-04-07T02:40:19.253Z,13.07
2023-04-07T02:42:21.080Z,12.50
2023-04-07T02:44:23.898Z,12.90
2023-04-07T02:46:25.789Z,12.80
2023-04-07T02:48:28.778Z,12.87
2023-04-07T02:50:30.550Z,12.53
2023-04-07T02:52:32.284Z,12.27
2023-04-07T02:54:34.020Z,12.00
2023-04-07T02:56:36.088Z,12.47
2023-04-07T02:58:37.796Z,12.07
2023-04-07T03:00:39.671Z,12.80
2023-04-07T03:02:47.881Z,12.30
2023-04-07T03:04:52.618Z,11.93
2023-04-07T03:06:56.573Z,12.10
2023-04-07T03:08:58.355Z,12.73
2023-04-07T03:11:02.322Z,12.27
2023-04-07T03:13:05.215Z,11.37
2023-04-07T03:15:09.507Z,11.90
2023-04-07T03:17:12.071Z,11.10
2023-04-07T03:19:14.290Z,11.80
2023-04-07T03:21:19.421Z,11.63
2023-04-07T03:23:21.363Z,12.20
2023-04-07T03:25:23.072Z,12.07
2023-04-07T03:27:26.481Z,11.90
2023-04-07T03:29:31.450Z,11.33
2023-04-07T03:31:34.195Z,11.53
2023-04-07T03:33:36.292Z,11.17
2023-04-07T03:35:40.532Z,10.70
2023-04-07T03:37:43.325Z,10.10
2023-04-07T03:39:50.346Z,11.43
2023-04-07T03:42:00.992Z,10.90
2023-04-07T03:44:07.010Z,11.13
2023-04-07T03:46:11.070Z,11.53
2023-04-07T03:48:13.346Z,10.83
2023-04-07T03:50:25.622Z,10.70
2023-04-07T03:52:36.216Z,12.10
2023-04-07T03:54:46.835Z,11.17
2023-04-07T03:56:50.511Z,10.77
2023-04-07T03:58:56.712Z,11.73
2023-04-07T04:01:05.161Z,10.53
2023-04-07T04:03:09.193Z,10.50
2023-04-07T04:05:16.741Z,10.80
2023-04-07T04:07:19.685Z,10.40
2023-04-07T04:09:25.709Z,9.30
2023-04-07T04:11:28.270Z,9.43
2023-04-07T04:13:41.006Z,10.57
2023-04-07T04:15:42.987Z,10.33
2023-04-07T04:17:49.370Z,10.57
2023-04-07T04:19:51.676Z,10.77
2023-04-07T04:22:13.962Z,10.97
2023-04-07T04:24:24.082Z,10.50
2023-04-07T04:26:27.168Z,10.50
2023-04-07T04:28:32.552Z,10.57
2023-04-07T04:30:35.870Z,10.27
2023-04-07T04:32:39.540Z,10.67
2023-04-07T04:34:42.131Z,10.30
2023-04-07T04:36:48.586Z,11.80
2023-04-07T04:38:52.793Z,10.47
2023-04-07T04:40:56.316Z,10.57
2023-04-07T04:43:06.930Z,10.57
2023-04-07T04:45:11.078Z,11.37
2023-04-07T04:47:17.026Z,11.03
2023-04-07T04:49:19.153Z,10.70
2023-04-07T04:51:23.633Z,10.30
2023-04-07T04:53:31.617Z,10.50
2023-04-07T04:55:36.644Z,11.00
2023-04-07T04:57:40.171Z,10.43
2023-04-07T04:59:45.747Z,10.97
2023-04-07T05:01:47.567Z,10.40
2023-04-07T05:03:52.038Z,11.33
2023-04-07T05:05:59.752Z,9.57
2023-04-07T05:08:01.710Z,10.13
2023-04-07T05:10:09.512Z,9.13
2023-04-07T05:12:16.078Z,9.63
2023-04-07T05:14:22.740Z,9.50
2023-04-07T05:16:30.376Z,11.10
2023-04-07T05:18:32.571Z,14.20
2023-04-07T05:20:35.330Z,13.07
2023-04-07T05:22:37.269Z,10.53
2023-04-07T05:24:41.325Z,12.30
2023-04-07T05:26:43.634Z,10.47
2023-04-07T05:28:45.661Z,9.73
2023-04-07T05:30:53.337Z,10.67
2023-04-07T05:32:59.182Z,9.77
2023-04-07T05:35:16.656Z,9.50
2023-04-07T05:37:25.560Z,9.97
2023-04-07T05:39:28.452Z,9.50
2023-04-07T05:41:32.308Z,9.57
2023-04-07T05:43:35.576Z,8.97
2023-04-07T05:45:37.907Z,8.53
2023-04-07T05:47:41.043Z,7.97
2023-04-07T05:49:47.822Z,8.70
2023-04-07T05:51:49.767Z,8.57
2023-04-07T05:53:52.105Z,8.63
2023-04-07T05:55:56.604Z,8.63
2023-04-07T05:58:16.297Z,9.30
2023-04-07T06:00:23.224Z,9.67
2023-04-07T06:02:37.412Z,9.00
2023-04-07T06:04:41.439Z,8.80
2023-04-07T06:06:47.474Z,8.40
2023-04-07T06:08:49.343Z,9.77
2023-04-07T06:10:56.319Z,8.77
2023-04-07T06:12:57.968Z,9.10
2023-04-07T06:14:59.663Z,9.90
2023-04-07T06:17:02.144Z,10.40
2023-04-07T06:19:03.978Z,10.27
2023-04-07T06:21:08.164Z,9.83
2023-04-07T06:23:09.837Z,9.17
2023-04-07T06:25:11.736Z,9.37
2023-04-07T06:27:15.756Z,9.07
2023-04-07T06:29:17.549Z,9.13
2023-04-07T06:31:20.217Z,9.70
2023-04-07T06:33:25.600Z,9.47
2023-04-07T06:35:27.641Z,9.30
2023-04-07T06:37:29.752Z,8.97
2023-04-07T06:39:31.637Z,9.33
2023-04-07T06:41:36.634Z,10.13
2023-04-07T06:43:40.913Z,10.00
2023-04-07T06:45:45.478Z,9.73
2023-04-07T06:47:49.199Z,9.23
2023-04-07T06:49:52.373Z,9.60
2023-04-07T06:51:54.214Z,10.33
2023-04-07T06:53:56.112Z,9.97
2023-04-07T06:56:06.059Z,9.57
2023-04-07T06:58:08.090Z,9.83
2023-04-07T07:00:10.804Z,9.37
2023-04-07T07:02:12.685Z,9.57
2023-04-07T07:04:14.655Z,8.90
2023-04-07T07:06:16.431Z,8.90
2023-04-07T07:08:18.160Z,9.07
2023-04-07T07:10:22.890Z,8.50
2023-04-07T07:12:26.879Z,9.33
2023-04-07T07:14:30.590Z,9.73
2023-04-07T07:16:32.258Z,8.87
2023-04-07T07:18:34.020Z,9.37
2023-04-07T07:20:35.768Z,8.73
2023-04-07T07:22:37.564Z,7.90
2023-04-07T07:24:39.532Z,8.53
2023-04-07T07:26:45.171Z,8.30
2023-04-07T07:28:47.143Z,7.63
2023-04-07T07:30:49.155Z,7.13
2023-04-07T07:32:55.032Z,7.10
2023-04-07T07:34:56.832Z,7.73
2023-04-07T07:36:59.900Z,7.57
2023-04-07T07:39:06.466Z,8.07
2023-04-07T07:41:10.361Z,7.43
2023-04-07T07:43:12.363Z,8.07
2023-04-07T07:45:14.205Z,8.50
2023-04-07T07:47:15.946Z,7.70
2023-04-07T07:49:17.684Z,7.40
2023-04-07T07:51:19.396Z,7.13
2023-04-07T07:53:23.641Z,7.13
2023-04-07T07:55:26.600Z,7.73
2023-04-07T07:57:33.384Z,7.23
2023-04-07T07:59:35.282Z,7.10
2023-04-07T08:01:36.976Z,7.77
2023-04-07T08:03:38.916Z,7.43
2023-04-07T08:05:40.903Z,7.80
2023-04-07T08:07:43.593Z,7.73
2023-04-07T08:09:46.703Z,7.60
2023-04-07T08:11:48.518Z,7.97
2023-04-07T08:13:50.574Z,8.23
2023-04-07T08:15:52.501Z,7.77
2023-04-07T08:17:55.545Z,8.20
2023-04-07T08:19:57.933Z,8.60
2023-04-07T08:21:59.571Z,8.27
2023-04-07T08:24:01.541Z,7.60
2023-04-07T08:26:03.292Z,8.00
2023-04-07T08:28:05.275Z,7.83
2023-04-07T08:30:07.608Z,7.93
2023-04-07T08:32:09.371Z,7.47
2023-04-07T08:34:11.159Z,7.83
2023-04-07T08:36:18.458Z,8.37
2023-04-07T08:38:22.006Z,8.13
2023-04-07T08:40:23.763Z,8.17
2023-04-07T08:42:29.823Z,8.07
2023-04-07T08:44:31.828Z,8.00
2023-04-07T08:46:34.409Z,7.80
2023-04-07T08:48:38.471Z,7.90
2023-04-07T08:50:41.966Z,7.60
2023-04-07T08:52:52.644Z,8.13
2023-04-07T08:54:56.170Z,7.50
2023-04-07T08:56:58.178Z,7.53
2023-04-07T08:59:03.475Z,7.97
2023-04-07T09:01:06.733Z,8.17
2023-04-07T09:03:12.737Z,7.30
2023-04-07T09:05:14.856Z,6.80
2023-04-07T09:07:16.582Z,7.60
2023-04-07T09:09:18.223Z,7.77
2023-04-07T09:11:19.898Z,7.87
2023-04-07T09:13:23.981Z,7.50
2023-04-07T09:15:32.534Z,7.80
2023-04-07T09:17:37.075Z,7.53
2023-04-07T09:19:38.949Z,7.40
2023-04-07T09:21:54.147Z,7.73
2023-04-07T09:23:55.822Z,7.17
2023-04-07T09:26:01.806Z,8.03
2023-04-07T09:28:07.941Z,7.80
2023-04-07T09:30:15.639Z,7.90
2023-04-07T09:32:38.750Z,7.70
2023-04-07T09:34:43.983Z,7.10
2023-04-07T09:36:45.655Z,7.73
2023-04-07T09:38:47.435Z,7.60
2023-04-07T09:40:49.560Z,7.30
2023-04-07T09:42:51.451Z,7.37
2023-04-07T09:44:53.305Z,7.57
2023-04-07T09:46:59.278Z,7.90
2023-04-07T09:49:08.565Z,7.73
2023-04-07T09:51:19.379Z,7.50
2023-04-07T09:53:22.981Z,7.20
2023-04-07T09:55:24.748Z,8.07
2023-04-07T09:57:26.605Z,6.93
2023-04-07T09:59:30.007Z,7.10
2023-04-07T10:01:31.860Z,6.87
2023-04-07T10:03:37.386Z,6.63
2023-04-07T10:05:42.559Z,7.60
2023-04-07T10:07:48.419Z,7.23
2023-04-07T10:09:50.452Z,8.00
2023-04-07T10:11:53.312Z,8.20
2023-04-07T10:13:55.291Z,8.43
2023-04-07T10:15:58.491Z,7.73
2023-04-07T10:18:07.338Z,8.57
2023-04-07T10:20:10.738Z,7.97
2023-04-07T10:22:16.621Z,7.97
2023-04-07T10:24:45.041Z,8.40
2023-04-07T10:26:53.134Z,7.63
2023-04-07T10:29:02.607Z,7.70
2023-04-07T10:31:04.992Z,8.03
2023-04-07T10:33:06.842Z,9.10
2023-04-07T10:35:08.798Z,9.00
2023-04-07T10:37:13.966Z,8.50
2023-04-07T10:39:19.051Z,8.37
2023-04-07T10:41:37.930Z,7.70
2023-04-07T10:43:41.688Z,8.43
2023-04-07T10:45:48.820Z,8.67
2023-04-07T10:48:02.673Z,7.37
2023-04-07T10:50:18.432Z,7.77
2023-04-07T10:52:24.253Z,7.33
2023-04-07T10:54:29.040Z,7.17
2023-04-07T10:57:07.821Z,7.50
2023-04-07T10:59:15.599Z,6.93
2023-04-07T11:01:19.075Z,6.83
2023-04-07T11:03:20.940Z,6.50
2023-04-07T11:05:23.520Z,5.97
2023-04-07T11:07:49.815Z,5.67
2023-04-07T11:09:51.535Z,6.30
2023-04-07T11:11:53.469Z,5.70
2023-04-07T11:13:55.172Z,6.03
2023-04-07T11:15:56.986Z,6.40
2023-04-07T11:18:21.008Z,5.33
2023-04-07T11:20:25.013Z,5.93
2023-04-07T11:22:42.670Z,4.93
2023-04-07T11:24:46.753Z,5.03
2023-04-07T11:26:50.526Z,4.63
2023-04-07T11:29:02.389Z,4.73
2023-04-07T11:31:04.392Z,5.13
2023-04-07T11:33:07.301Z,4.87
2023-04-07T11:35:09.688Z,4.47
2023-04-07T11:37:26.907Z,4.30
2023-04-07T11:39:32.618Z,4.07
2023-04-07T11:41:46.673Z,3.87
2023-04-07T11:43:51.064Z,3.70
2023-04-07T11:46:16.213Z,4.03
2023-04-07T11:48:32.408Z,3.77
2023-04-07T11:50:41.449Z,3.43
2023-04-07T11:52:49.831Z,3.97
2023-04-07T11:54:51.785Z,3.83
2023-04-07T11:56:55.883Z,3.30
2023-04-07T11:58:58.067Z,3.20
2023-04-07T12:01:06.769Z,3.20
2023-04-07T12:03:14.599Z,3.23
2023-04-07T12:05:17.083Z,3.50
2023-04-07T12:07:18.931Z,3.63
2023-04-07T12:09:39.925Z,3.40
2023-04-07T12:11:50.196Z,3.30
2023-04-07T12:13:52.897Z,2.90
2023-04-07T12:15:54.540Z,3.30
2023-04-07T12:17:56.386Z,2.80
2023-04-07T12:19:58.234Z,3.20
2023-04-07T12:22:00.221Z,4.23
2023-04-07T12:24:04.275Z,5.10
2023-04-07T12:26:13.240Z,4.70
2023-04-07T12:28:15.549Z,4.93
2023-04-07T12:30:17.299Z,4.83
2023-04-07T12:32:19.307Z,3.70
2023-04-07T12:34:21.522Z,3.57
2023-04-07T12:36:23.291Z,4.10
2023-04-07T12:38:25.148Z,3.50
2023-04-07T12:40:27.440Z,3.10
2023-04-07T12:42:29.129Z,3.60
2023-04-07T12:44:31.467Z,3.37
2023-04-07T12:46:33.451Z,3.43
2023-04-07T12:48:35.349Z,2.93
2023-04-07T12:50:37.548Z,2.90
2023-04-07T12:52:41.953Z,2.80
2023-04-07T12:54:45.256Z,3.20
2023-04-07T12:56:47.709Z,3.10
2023-04-07T12:58:49.444Z,3.40
2023-04-07T13:00:51.256Z,3.73
2023-04-07T13:02:53.315Z,3.00
2023-04-07T13:04:55.519Z,3.00
2023-04-07T13:06:57.443Z,2.63
2023-04-07T13:08:59.258Z,3.13
2023-04-07T13:11:03.420Z,2.87
2023-04-07T13:13:05.226Z,2.80
2023-04-07T13:15:07.476Z,2.97
2023-04-07T13:17:12.668Z,3.00
2023-04-07T13:19:14.491Z,3.00
2023-04-07T13:23:23.191Z,2.93
2023-04-07T13:25:24.970Z,2.87
2023-04-07T13:27:29.745Z,2.50
2023-04-07T13:29:32.026Z,2.30
2023-04-07T13:31:37.102Z,2.00
2023-04-07T13:33:41.118Z,2.20
2023-04-07T13:35:42.829Z,2.20
2023-04-07T13:37:44.729Z,2.30
2023-04-07T13:39:49.015Z,2.33
2023-04-07T13:41:50.772Z,2.40
2023-04-07T13:43:52.476Z,2.40
2023-04-07T13:45:55.068Z,2.50
2023-04-07T13:47:57.046Z,2.50
2023-04-07T13:49:59.649Z,3.07
2023-04-07T13:52:01.389Z,3.20
2023-04-07T13:54:05.716Z,2.93
2023-04-07T13:56:08.520Z,3.23
2023-04-07T13:58:13.363Z,3.23
2023-04-07T14:00:15.648Z,3.13
2023-04-07T14:02:18.160Z,3.80
2023-04-07T14:04:19.897Z,4.03
2023-04-07T14:06:22.916Z,4.23
2023-04-07T14:08:24.707Z,4.17
2023-04-07T14:10:27.176Z,4.53
2023-04-07T14:12:32.274Z,4.37
2023-04-07T14:14:34.257Z,4.63
2023-04-07T14:16:35.998Z,4.43
2023-04-07T14:18:37.708Z,4.87
2023-04-07T14:20:41.533Z,4.73
2023-04-07T14:22:43.209Z,4.53
2023-04-07T14:24:47.290Z,4.40
2023-04-07T14:26:50.930Z,4.40
2023-04-07T14:28:52.624Z,4.00
2023-04-07T14:30:56.303Z,4.00
2023-04-07T14:32:58.074Z,3.90
2023-04-07T14:35:00.058Z,4.30
2023-04-07T14:37:03.892Z,3.87
2023-04-07T14:39:05.573Z,3.97
2023-04-07T14:41:09.977Z,4.17
2023-04-07T14:43:12.230Z,3.73
2023-04-07T14:45:14.024Z,3.97
2023-04-07T14:47:15.957Z,3.40
2023-04-07T14:49:17.798Z,3.53
2023-04-07T14:51:19.944Z,3.40
2023-04-07T14:53:23.503Z,3.10
2023-04-07T14:55:25.151Z,3.30
2023-04-07T14:57:28.406Z,2.80
2023-04-07T14:59:30.344Z,2.67
2023-04-07T15:01:32.190Z,3.17
2023-04-07T15:03:37.546Z,2.53
2023-04-07T15:05:39.485Z,3.00
2023-04-07T15:07:43.978Z,3.30
2023-04-07T15:09:47.628Z,2.80
2023-04-07T15:11:49.335Z,2.60
2023-04-07T15:13:51.223Z,2.90
2023-04-07T15:15:53.128Z,2.73
2023-04-07T15:17:54.994Z,2.30
2023-04-07T15:19:56.705Z,2.50
2023-04-07T15:21:58.377Z,3.00
2023-04-07T15:24:00.135Z,2.40
2023-04-07T15:26:02.031Z,2.33
2023-04-07T15:28:06.730Z,2.73
2023-04-07T15:30:08.743Z,2.70
2023-04-07T15:32:10.485Z,2.43
2023-04-07T15:34:12.737Z,3.10
2023-04-07T15:36:18.375Z,2.60
2023-04-07T15:38:20.114Z,2.77
2023-04-07T15:40:21.850Z,2.60
2023-04-07T15:42:23.660Z,3.20
2023-04-07T15:44:27.907Z,3.00
2023-04-07T15:46:29.658Z,3.10
2023-04-07T15:48:31.461Z,2.77
2023-04-07T15:50:34.847Z,2.90
2023-04-07T15:52:36.566Z,2.70
2023-04-07T15:54:40.663Z,2.80
2023-04-07T15:56:42.404Z,3.00
2023-04-07T15:58:45.800Z,2.70
2023-04-07T16:00:50.656Z,2.67
2023-04-07T16:02:52.617Z,3.07
2023-04-07T16:04:54.552Z,3.27
2023-04-07T16:06:56.298Z,2.70
2023-04-07T16:08:57.984Z,3.23
2023-04-07T16:11:00.395Z,3.50
2023-04-07T16:13:02.170Z,3.30
2023-04-07T16:15:04.201Z,3.77
2023-04-07T16:17:06.095Z,3.70
2023-04-07T16:19:08.128Z,3.67
2023-04-07T16:21:10.964Z,3.73
2023-04-07T16:23:12.944Z,4.33
2023-04-07T16:25:16.187Z,4.20
2023-04-07T16:27:17.956Z,4.13
2023-04-07T16:29:22.435Z,4.23
2023-04-07T16:31:24.115Z,4.27
2023-04-07T16:33:26.263Z,4.60
2023-04-07T16:35:32.982Z,4.07
2023-04-07T16:37:34.722Z,4.40
2023-04-07T16:39:36.384Z,4.00
2023-04-07T16:41:38.040Z,4.17
2023-04-07T16:43:39.790Z,4.20
2023-04-07T16:45:41.656Z,3.40
2023-04-07T16:47:44.527Z,3.40
2023-04-07T16:49:46.383Z,3.93
2023-04-07T16:51:48.068Z,3.87
2023-04-07T16:53:56.424Z,3.50
2023-04-07T16:55:58.102Z,3.63
2023-04-07T16:57:59.734Z,3.77
2023-04-07T17:00:01.601Z,4.17
2023-04-07T17:02:09.315Z,3.63
2023-04-07T17:04:11.191Z,4.00
2023-04-07T17:06:13.199Z,3.77
2023-04-07T17:08:14.920Z,3.87
2023-04-07T17:10:16.642Z,3.80
2023-04-07T17:12:18.387Z,4.00
2023-04-07T17:14:24.001Z,4.50
2023-04-07T17:16:25.899Z,3.70
2023-04-07T17:18:32.150Z,4.17
2023-04-07T17:20:33.906Z,4.13
2023-04-07T17:22:36.088Z,3.57
2023-04-07T17:24:38.073Z,4.10
2023-04-07T17:26:39.945Z,3.50
2023-04-07T17:28:41.861Z,4.07
2023-04-07T17:30:43.837Z,3.73
2023-04-07T17:32:45.600Z,4.30
2023-04-07T17:34:47.460Z,3.73
2023-04-07T17:36:49.593Z,4.13
2023-04-07T17:38:51.231Z,4.33
2023-04-07T17:40:59.523Z,3.63
2023-04-07T17:43:01.344Z,4.40
2023-04-07T17:45:03.300Z,4.20
2023-04-07T17:47:05.007Z,5.00
2023-04-07T17:49:07.119Z,4.43
2023-04-07T17:51:11.342Z,4.30
2023-04-07T17:53:13.065Z,4.43
2023-04-07T17:55:14.694Z,4.53
2023-04-07T17:57:16.429Z,4.00
2023-04-07T17:59:20.758Z,4.50
2023-04-07T18:01:25.656Z,4.30
2023-04-07T18:03:27.517Z,4.33
2023-04-07T18:05:32.654Z,4.30
2023-04-07T18:07:34.467Z,4.90
2023-04-07T18:09:37.500Z,4.73
2023-04-07T18:11:39.273Z,4.33
2023-04-07T18:13:41.246Z,4.53
2023-04-07T18:15:43.479Z,4.50
2023-04-07T18:17:52.829Z,4.93
2023-04-07T18:19:54.814Z,4.90
2023-04-07T18:22:00.028Z,5.00
2023-04-07T18:24:04.889Z,4.43
2023-04-07T18:26:07.466Z,5.07
2023-04-07T18:28:12.419Z,5.20
2023-04-07T18:30:25.655Z,4.83
2023-04-07T18:32:27.734Z,4.63
2023-04-07T18:34:29.446Z,4.97
2023-04-07T18:36:32.097Z,4.97
2023-04-07T18:38:37.464Z,4.97
2023-04-07T18:40:39.257Z,5.13
2023-04-07T18:42:42.265Z,4.67
2023-04-07T18:44:46.485Z,5.07
2023-04-07T18:46:52.007Z,5.37
2023-04-07T18:48:54.479Z,5.60
2023-04-07T18:50:58.286Z,5.77
2023-04-07T18:53:00.092Z,5.70
2023-04-07T18:55:01.941Z,5.80
2023-04-07T18:57:06.240Z,5.13
2023-04-07T18:59:08.317Z,5.27
2023-04-07T19:01:11.565Z,5.27
2023-04-07T19:03:13.760Z,4.90
2023-04-07T19:05:22.389Z,4.80
2023-04-07T19:07:26.647Z,5.00
2023-04-07T19:09:30.462Z,4.93
2023-04-07T19:11:32.611Z,5.30
2023-04-07T19:13:34.494Z,4.90
2023-04-07T19:15:40.749Z,5.00
2023-04-07T19:17:42.996Z,4.83
2023-04-07T19:19:44.810Z,4.40
2023-04-07T19:21:46.541Z,5.30
2023-04-07T19:23:51.295Z,4.60
2023-04-07T19:25:53.209Z,5.03
2023-04-07T19:27:55.050Z,5.17
2023-04-07T19:29:59.384Z,5.37
2023-04-07T19:32:01.431Z,5.77
2023-04-07T19:34:03.316Z,5.27
2023-04-07T19:36:05.211Z,5.23
2023-04-07T19:38:07.213Z,5.77
2023-04-07T19:40:09.482Z,6.03
2023-04-07T19:42:13.672Z,5.30
2023-04-07T19:44:16.635Z,5.37
2023-04-07T19:46:18.338Z,5.50
2023-04-07T19:48:22.514Z,6.00
2023-04-07T19:50:25.041Z,5.57
2023-04-07T19:52:28.556Z,5.90
2023-04-07T19:54:30.383Z,6.43
2023-04-07T19:56:32.244Z,6.20
2023-04-07T19:58:35.514Z,6.30
2023-04-07T20:00:41.818Z,6.07
2023-04-07T20:02:43.819Z,6.17
2023-04-07T20:04:45.850Z,6.33
2023-04-07T20:07:00.759Z,6.13
2023-04-07T20:09:02.808Z,6.50
2023-04-07T20:11:11.102Z,6.50
2023-04-07T20:13:12.895Z,6.50
2023-04-07T20:15:18.170Z,6.83
2023-04-07T20:17:20.010Z,6.40
2023-04-07T20:19:23.907Z,6.40
2023-04-07T20:21:26.111Z,7.20
2023-04-07T20:23:28.259Z,6.57
2023-04-07T20:25:29.874Z,6.60
2023-04-07T20:27:34.220Z,6.63
2023-04-07T20:29:36.228Z,6.47
2023-04-07T20:31:37.882Z,6.20
2023-04-07T20:33:41.811Z,5.73
2023-04-07T20:35:43.647Z,5.87
2023-04-07T20:37:45.706Z,6.27
2023-04-07T20:39:48.777Z,5.50
2023-04-07T20:41:50.625Z,6.00
2023-04-07T20:43:52.608Z,5.63
2023-04-07T20:45:57.995Z,6.10
2023-04-07T20:48:00.008Z,5.77
2023-04-07T20:50:01.761Z,6.43
2023-04-07T20:52:06.393Z,6.07
2023-04-07T20:54:08.340Z,5.77
2023-04-07T20:56:12.320Z,5.60
2023-04-07T20:58:14.094Z,5.57
2023-04-07T21:00:17.684Z,5.80
2023-04-07T21:02:21.120Z,5.83
2023-04-07T21:04:24.511Z,5.90
2023-04-07T21:06:26.406Z,6.30
2023-04-07T21:08:30.542Z,5.77
2023-04-07T21:10:34.434Z,5.40
2023-04-07T21:12:36.464Z,5.80
2023-04-07T21:14:38.166Z,5.90
2023-04-07T21:16:44.729Z,6.40
2023-04-07T21:18:46.460Z,6.03
2023-04-07T21:20:48.368Z,6.50
2023-04-07T21:22:50.034Z,7.70
2023-04-07T21:24:56.188Z,6.80
2023-04-07T21:26:59.032Z,7.03
2023-04-07T21:29:00.732Z,6.80
2023-04-07T21:31:04.681Z,7.33
2023-04-07T21:33:06.372Z,6.83
2023-04-07T21:35:08.566Z,7.47
2023-04-07T21:37:12.791Z,6.97
2023-04-07T21:39:17.578Z,6.87
2023-04-07T21:41:19.281Z,7.47
2023-04-07T21:43:22.117Z,7.17
2023-04-07T21:45:23.831Z,7.43
2023-04-07T21:47:27.828Z,6.97
2023-04-07T21:49:29.516Z,7.50
2023-04-07T21:51:33.594Z,7.60
2023-04-07T21:53:38.054Z,7.37
2023-04-07T21:55:39.759Z,7.27
2023-04-07T21:57:41.536Z,6.90
2023-04-07T21:59:43.286Z,7.13
2023-04-07T22:01:48.392Z,7.83
2023-04-07T22:03:50.592Z,7.97
2023-04-07T22:05:52.373Z,7.27
2023-04-07T22:07:54.085Z,7.50
2023-04-07T22:09:56.999Z,7.67
2023-04-07T22:12:01.098Z,7.40
2023-04-07T22:14:03.000Z,6.87
2023-04-07T22:16:05.310Z,7.50
2023-04-07T22:18:07.206Z,7.47
2023-04-07T22:20:11.134Z,6.80
2023-04-07T22:22:13.052Z,8.00
2023-04-07T22:24:17.062Z,7.57
2023-04-07T22:26:19.437Z,7.43
2023-04-07T22:28:21.106Z,7.30
2023-04-07T22:30:24.391Z,7.70
2023-04-07T22:32:26.234Z,7.53
2023-04-07T22:34:27.900Z,8.40
2023-04-07T22:36:29.571Z,7.57
2023-04-07T22:38:31.282Z,7.87
2023-04-07T22:40:35.530Z,8.43
2023-04-07T22:42:40.060Z,8.33
2023-04-07T22:44:41.694Z,8.10
2023-04-07T22:46:43.462Z,9.00
2023-04-07T22:48:45.430Z,8.70
2023-04-07T22:50:47.150Z,8.53
2023-04-07T22:52:48.844Z,8.93
2023-04-07T22:54:53.153Z,7.63
2023-04-07T22:56:59.304Z,8.20
2023-04-07T22:59:05.346Z,8.07
2023-04-07T23:01:08.743Z,7.83
2023-04-07T23:03:10.890Z,8.13
2023-04-07T23:05:12.636Z,8.17
2023-04-07T23:07:16.680Z,8.23
2023-04-07T23:09:18.471Z,7.87
2023-04-07T23:11:21.000Z,7.97
2023-04-07T23:13:24.266Z,8.13
2023-04-07T23:15:27.127Z,7.97
2023-04-07T23:17:33.565Z,8.83
2023-04-07T23:19:37.718Z,8.80
2023-04-07T23:21:39.664Z,8.50
2023-04-07T23:23:41.516Z,8.80
2023-04-07T23:25:43.196Z,8.80
2023-04-07T23:27:45.100Z,9.27
2023-04-07T23:29:48.374Z,9.97
2023-04-07T23:31:50.386Z,9.00
2023-04-07T23:33:52.319Z,8.97
2023-04-07T23:35:54.017Z,9.30
2023-04-07T23:37:57.976Z,9.63
2023-04-07T23:40:01.866Z,9.27
2023-04-07T23:42:03.644Z,9.80
2023-04-07T23:44:05.758Z,10.23
2023-04-07T23:46:07.430Z,9.37
2023-04-07T23:48:09.195Z,9.63
2023-04-07T23:50:12.346Z,9.87
2023-04-07T23:52:15.084Z,9.50
2023-04-07T23:54:19.008Z,9.73
2023-04-07T23:56:23.197Z,9.23
2023-04-07T23:58:25.463Z,10.23
